Time;durP1;ratioP1;P1;durP2;ratioP2;P2;SDS_P1;SDS_P2;PMS_P1;PMS_P2;Temp;Humidity;BMP_temperature;BMP_pressure;BME280_temperature;BME280_humidity;BME280_pressure;Samples;Min_cycle;Max_cycle;Signal;HPM_P1;HPM_P2
2022/12/07 00:01:20;;;;;;;15.13;10.73;;;14.20;55.60;;;;;;5958105;24;20533;-82
2022/12/07 00:03:47;;;;;;;13.80;10.05;;;14.10;55.70;;;;;;5980953;23;20016;-79
2022/12/07 00:06:15;;;;;;;15.18;10.10;;;13.90;55.70;;;;;;5981300;24;20012;-80
2022/12/07 00:08:41;;;;;;;17.80;11.30;;;13.60;56.40;;;;;;5957575;24;20000;-79
2022/12/07 00:11:12;;;;;;;17.73;12.20;;;13.60;56.40;;;;;;5957818;24;20008;-80
2022/12/07 00:13:39;;;;;;;16.58;11.48;;;13.60;56.10;;;;;;5981918;24;20139;-81
2022/12/07 00:16:14;;;;;;;15.73;11.10;;;13.60;56.40;;;;;;6043836;23;20002;-80
2022/12/07 00:18:40;;;;;;;25.15;18.00;;;13.70;56.10;;;;;;6127450;23;20013;-82
2022/12/07 00:21:14;;;;;;;18.13;12.48;;;13.10;56.30;;;;;;6101307;23;20002;-82
2022/12/07 00:23:41;;;;;;;20.95;15.23;;;12.70;57.40;;;;;;6126325;23;20073;-81
2022/12/07 00:26:10;;;;;;;16.42;10.82;;;12.50;58.10;;;;;;6100495;23;20013;-80
2022/12/07 00:28:36;;;;;;;16.38;11.57;;;12.70;57.50;;;;;;6100694;23;20002;-79
2022/12/07 00:31:11;;;;;;;24.33;16.85;;;12.90;57.10;;;;;;6100217;23;20016;-81
2022/12/07 00:33:38;;;;;;;26.40;18.02;;;12.70;57.40;;;;;;6126934;23;20072;-83
2022/12/07 00:36:06;;;;;;;27.83;19.90;;;12.70;57.60;;;;;;6100610;23;20014;-83
2022/12/07 00:38:34;;;;;;;36.78;23.65;;;12.90;57.50;;;;;;6100671;23;19998;-80
2022/12/07 00:41:05;;;;;;;15.15;11.35;;;13.10;57.20;;;;;;6126637;23;19994;-85
2022/12/07 00:43:31;;;;;;;16.13;10.60;;;13.30;57.00;;;;;;6126831;23;20010;-82
2022/12/07 00:45:57;;;;;;;16.13;11.57;;;13.50;56.70;;;;;;6099924;23;20021;-80
2022/12/07 00:48:24;;;;;;;17.38;11.60;;;13.70;56.40;;;;;;6125959;23;20049;-82
2022/12/07 00:50:50;;;;;;;18.33;11.98;;;13.50;56.60;;;;;;6100469;23;20376;-81
2022/12/07 00:53:16;;;;;;;20.08;11.60;;;13.30;57.70;;;;;;6124481;23;20081;-81
2022/12/07 00:55:42;;;;;;;15.68;11.10;;;13.50;57.10;;;;;;6126710;23;20029;-83
2022/12/07 00:58:07;;;;;;;14.40;10.45;;;13.50;56.90;;;;;;6125284;23;20335;-83
2022/12/07 01:00:36;;;;;;;15.73;11.27;;;13.40;56.90;;;;;;6126616;23;20081;-83
2022/12/07 01:03:03;;;;;;;15.73;11.10;;;13.60;57.30;;;;;;6100116;23;20068;-85
2022/12/07 01:05:28;;;;;;;17.02;10.85;;;13.80;56.60;;;;;;6100462;23;20017;-84
2022/12/07 01:07:54;;;;;;;15.73;10.30;;;13.80;57.10;;;;;;6124472;23;20381;-84
2022/12/07 01:10:20;;;;;;;17.95;10.63;;;13.90;56.20;;;;;;6124543;23;20037;-82
2022/12/07 01:12:45;;;;;;;15.93;10.93;;;13.90;56.10;;;;;;6100764;23;20309;-83
2022/12/07 01:15:11;;;;;;;14.57;10.63;;;13.80;56.10;;;;;;6126443;23;20061;-80
2022/12/07 01:17:37;;;;;;;15.85;10.70;;;13.50;56.00;;;;;;6124733;23;20009;-81
2022/12/07 01:20:03;;;;;;;15.88;9.98;;;13.40;56.40;;;;;;6123560;23;20332;-80
2022/12/07 01:22:29;;;;;;;16.13;10.50;;;13.20;56.80;;;;;;6098669;23;19998;-81
2022/12/07 01:24:54;;;;;;;15.27;10.27;;;13.00;57.30;;;;;;6122860;23;20024;-80
2022/12/07 01:27:21;;;;;;;14.90;10.02;;;13.00;57.20;;;;;;6124656;23;20006;-81
2022/12/07 01:29:46;;;;;;;15.10;10.38;;;13.00;57.50;;;;;;6125069;23;20010;-80
2022/12/07 01:32:12;;;;;;;18.05;10.77;;;13.10;57.60;;;;;;6125001;23;20084;-80
2022/12/07 01:34:38;;;;;;;16.88;10.98;;;13.20;57.90;;;;;;6123916;23;20010;-81
2022/12/07 01:37:04;;;;;;;17.40;11.07;;;13.20;57.70;;;;;;6099536;23;20439;-81
2022/12/07 01:39:29;;;;;;;14.77;10.18;;;13.40;57.60;;;;;;6125762;23;20009;-81
2022/12/07 01:41:55;;;;;;;14.43;9.65;;;13.40;57.40;;;;;;6099925;23;20481;-80
2022/12/07 01:44:23;;;;;;;14.98;10.13;;;13.20;57.70;;;;;;6124755;23;20016;-80
2022/12/07 01:46:57;;;;;;;14.38;10.30;;;12.90;58.40;;;;;;6099709;23;20450;-79
2022/12/07 01:49:32;;;;;;;17.58;10.57;;;13.00;58.50;;;;;;6099138;23;20009;-80
2022/12/07 01:52:15;;;;;;;18.23;11.23;;;13.00;58.80;;;;;;6099750;23;20010;-81
2022/12/07 01:54:43;;;;;;;15.90;11.02;;;13.10;58.60;;;;;;6099206;23;20439;-80
2022/12/07 01:57:10;;;;;;;16.98;11.02;;;13.20;58.80;;;;;;6125585;23;20301;-84
2022/12/07 01:59:37;;;;;;;17.33;11.60;;;13.30;58.50;;;;;;6099890;23;20006;-80
2022/12/07 02:02:07;;;;;;;16.05;11.32;;;13.50;58.30;;;;;;6099096;23;20037;-81
2022/12/07 02:04:33;;;;;;;;;;;13.50;58.10;;;;;;6125155;23;20013;-80
2022/12/07 02:06:59;;;;;;;17.45;11.27;;;13.60;57.60;;;;;;6125027;23;19978;-82
2022/12/07 02:09:25;;;;;;;15.48;10.77;;;13.50;58.20;;;;;;6126073;23;20068;-84
2022/12/07 02:11:51;;;;;;;16.15;11.10;;;13.70;57.80;;;;;;6100254;23;20010;-80
2022/12/07 02:14:17;;;;;;;16.45;11.13;;;13.90;57.50;;;;;;6124876;23;20006;-84
2022/12/07 02:17:12;;;;;;;16.45;11.38;;;13.90;57.20;;;;;;6099733;23;20009;-80
2022/12/07 02:20:03;;;;;;;17.35;11.40;;;13.70;57.50;;;;;;6087141;23;20082;-81
2022/12/07 02:22:53;;;;;;;14.80;10.30;;;13.80;57.50;;;;;;6100120;23;20013;-83
2022/12/07 02:25:37;;;;;;;14.05;10.23;;;14.10;57.00;;;;;;6100057;23;20416;-83
2022/12/07 02:28:20;;;;;;;15.80;10.73;;;14.10;57.00;;;;;;6125776;23;20427;-81
2022/12/07 02:30:49;;;;;;;15.88;11.02;;;14.30;56.60;;;;;;6126556;23;20065;-81
2022/12/07 02:33:30;;;;;;;15.13;10.57;;;14.30;56.70;;;;;;6099858;23;20017;-83
2022/12/07 02:36:03;;;;;;;15.15;10.63;;;14.30;56.70;;;;;;6126032;23;20064;-83
2022/12/07 02:38:49;;;;;;;14.80;10.65;;;14.30;56.50;;;;;;6100013;23;20093;-83
2022/12/07 02:41:22;;;;;;;15.13;10.65;;;14.20;56.50;;;;;;6124526;23;20014;-81
2022/12/07 02:43:58;;;;;;;18.67;11.32;;;14.20;56.60;;;;;;6125660;23;20340;-80
2022/12/07 02:46:29;;;;;;;15.07;10.73;;;14.10;56.70;;;;;;6100358;23;20347;-83
2022/12/07 02:48:56;;;;;;;15.30;10.65;;;14.20;56.60;;;;;;6100369;23;20081;-80
2022/12/07 02:51:22;;;;;;;14.85;10.65;;;14.10;57.00;;;;;;6099697;23;20010;-84
2022/12/07 02:53:48;;;;;;;15.63;11.70;;;14.20;56.70;;;;;;6126087;23;20320;-83
2022/12/07 02:56:43;;;;;;;15.95;11.40;;;14.30;56.90;;;;;;6100419;23;20002;-83
2022/12/07 02:59:26;;;;;;;18.60;12.15;;;14.10;57.10;;;;;;5980169;23;20089;-80
2022/12/07 03:01:58;;;;;;;15.60;10.55;;;13.90;57.80;;;;;;5979878;24;20012;-83
2022/12/07 03:04:42;;;;;;;17.02;12.13;;;13.90;57.50;;;;;;5980410;23;20316;-84
2022/12/07 03:07:33;;;;;;;18.48;12.40;;;14.20;57.30;;;;;;5980082;23;20012;-80
2022/12/07 03:10:14;;;;;;;15.13;10.70;;;14.20;57.10;;;;;;5980380;24;20032;-82
2022/12/07 03:12:59;;;;;;;;;;;14.20;57.40;;;;;;5980962;23;20075;-80
2022/12/07 03:15:57;;;;;;;18.42;11.50;;;14.20;57.30;;;;;;5979700;24;19914;-81
2022/12/07 03:18:27;;;;;;;16.08;11.73;;;14.10;57.60;;;;;;5980405;24;20011;-83
2022/12/07 03:20:57;;;;;;;16.80;12.10;;;14.10;57.70;;;;;;5957118;24;20004;-80
2022/12/07 03:23:26;;;;;;;18.58;12.65;;;13.90;58.10;;;;;;5980551;24;20474;-80
2022/12/07 03:25:58;;;;;;;20.90;13.67;;;13.90;58.10;;;;;;5980082;23;20473;-81
2022/12/07 03:28:27;;;;;;;16.50;11.32;;;13.80;58.70;;;;;;5982106;24;20091;-81
2022/12/07 03:31:02;;;;;;;16.00;11.43;;;13.70;58.50;;;;;;5982447;24;20079;-82
2022/12/07 03:33:57;;;;;;;17.63;12.00;;;13.50;58.50;;;;;;5980898;24;20320;-78
2022/12/07 03:36:31;;;;;;;17.23;11.98;;;12.90;60.30;;;;;;6044548;23;20013;-79
2022/12/07 03:39:24;;;;;;;17.83;12.60;;;12.60;60.70;;;;;;6127708;23;20002;-83
2022/12/07 03:41:52;;;;;;;18.52;12.48;;;12.60;61.30;;;;;;6101854;23;20009;-79
2022/12/07 03:44:18;;;;;;;19.90;13.35;;;12.50;61.80;;;;;;6127974;23;20076;-84
2022/12/07 03:47:02;;;;;;;19.27;13.25;;;12.60;61.70;;;;;;6102125;23;20013;-84
2022/12/07 03:49:54;;;;;;;18.27;13.05;;;12.90;60.30;;;;;;6127682;23;20002;-81
2022/12/07 03:52:39;;;;;;;18.40;12.15;;;12.90;60.30;;;;;;6101184;23;20017;-81
2022/12/07 03:55:17;;;;;;;24.50;13.70;;;12.80;60.70;;;;;;6101569;23;20002;-83
2022/12/07 03:57:44;;;;;;;17.73;12.13;;;13.10;60.70;;;;;;6101255;23;20010;-81
2022/12/07 04:00:11;;;;;;;20.77;14.13;;;13.40;59.60;;;;;;6101368;23;20006;-82
2022/12/07 04:02:38;;;;;;;19.63;13.23;;;13.50;59.80;;;;;;6101394;23;20002;-83
2022/12/07 04:05:04;;;;;;;21.02;13.75;;;13.60;59.00;;;;;;6100108;23;20018;-80
2022/12/07 04:07:29;;;;;;;19.45;13.55;;;13.60;59.10;;;;;;6101263;23;20002;-80
2022/12/07 04:09:55;;;;;;;18.75;13.15;;;13.10;59.80;;;;;;6101469;23;20006;-80
2022/12/07 04:12:22;;;;;;;19.58;12.77;;;12.50;61.60;;;;;;6125610;23;19998;-79
2022/12/07 04:14:47;;;;;;;23.35;15.10;;;12.60;61.10;;;;;;6100906;23;20009;-82
2022/12/07 04:17:13;;;;;;;21.90;14.23;;;13.00;60.90;;;;;;6101332;23;20097;-80
2022/12/07 04:19:39;;;;;;;23.27;14.80;;;13.30;59.80;;;;;;6125802;23;20085;-82
2022/12/07 04:22:05;;;;;;;22.67;14.98;;;13.10;60.80;;;;;;6127150;23;19998;-83
2022/12/07 04:24:32;;;;;;;27.55;15.82;;;13.20;60.40;;;;;;6100728;23;20072;-81
2022/12/07 04:26:57;;;;;;;26.95;16.63;;;13.10;60.50;;;;;;6101120;23;20439;-82
2022/12/07 04:29:23;;;;;;;28.40;16.60;;;13.30;60.10;;;;;;6126804;23;20039;-81
2022/12/07 04:31:49;;;;;;;23.98;14.65;;;13.50;59.40;;;;;;6125568;23;20018;-81
2022/12/07 04:34:16;;;;;;;22.98;15.25;;;13.70;59.50;;;;;;6100356;23;20013;-81
2022/12/07 04:36:42;;;;;;;23.60;15.43;;;13.90;58.90;;;;;;6126184;23;20049;-81
2022/12/07 04:39:16;;;;;;;20.73;14.25;;;14.00;58.60;;;;;;6100451;23;20002;-79
2022/12/07 04:41:42;;;;;;;21.13;14.98;;;14.10;58.40;;;;;;6127573;23;20407;-83
2022/12/07 04:44:08;;;;;;;22.38;14.20;;;14.00;58.10;;;;;;6123781;23;20002;-80
2022/12/07 04:46:34;;;;;;;19.40;13.40;;;13.90;58.60;;;;;;6100804;23;20017;-83
2022/12/07 04:49:00;;;;;;;15.48;11.30;;;13.60;59.00;;;;;;6101104;23;20171;-83
2022/12/07 04:51:28;;;;;;;19.20;13.07;;;13.50;59.30;;;;;;6125997;23;20005;-81
2022/12/07 04:53:55;;;;;;;23.02;14.40;;;13.50;59.60;;;;;;6100371;23;20394;-79
2022/12/07 04:56:22;;;;;;;23.75;16.23;;;13.60;59.30;;;;;;6100261;23;20017;-82
2022/12/07 04:58:48;;;;;;;21.63;15.57;;;13.70;58.90;;;;;;6125913;23;20085;-82
2022/12/07 05:01:16;;;;;;;23.10;15.60;;;13.80;58.60;;;;;;6123822;23;20029;-81
2022/12/07 05:03:42;;;;;;;20.17;14.43;;;13.70;59.00;;;;;;6126100;23;20009;-80
2022/12/07 05:06:10;;;;;;;20.90;14.55;;;13.60;58.90;;;;;;6124491;23;20018;-81
2022/12/07 05:08:36;;;;;;;23.00;15.27;;;13.50;59.10;;;;;;6124944;23;20076;-79
2022/12/07 05:11:03;;;;;;;22.70;15.55;;;13.10;60.10;;;;;;6125902;23;20029;-80
2022/12/07 05:13:29;;;;;;;22.23;15.40;;;13.10;60.10;;;;;;6100355;23;20005;-84
2022/12/07 05:15:55;;;;;;;21.42;14.38;;;13.10;60.50;;;;;;6127280;23;20006;-83
2022/12/07 05:18:20;;;;;;;21.70;14.80;;;13.40;59.70;;;;;;6124702;23;20066;-83
2022/12/07 05:20:46;;;;;;;22.35;15.63;;;13.40;59.50;;;;;;6124137;23;20009;-81
2022/12/07 05:23:12;;;;;;;20.45;13.60;;;13.50;60.00;;;;;;6126735;23;20029;-83
2022/12/07 05:25:38;;;;;;;25.40;15.02;;;13.00;60.30;;;;;;6125661;23;20383;-81
2022/12/07 05:28:04;;;;;;;24.40;15.68;;;12.70;61.20;;;;;;6100211;23;19998;-83
2022/12/07 05:30:31;;;;;;;27.20;16.73;;;13.00;60.80;;;;;;6126653;23;20102;-80
2022/12/07 05:32:56;;;;;;;25.13;16.67;;;13.30;59.60;;;;;;6098981;23;20800;-82
2022/12/07 05:35:22;;;;;;;24.77;16.88;;;13.30;59.60;;;;;;6125143;23;20006;-80
2022/12/07 05:37:48;;;;;;;23.40;16.48;;;13.30;59.80;;;;;;6125121;23;20049;-81
2022/12/07 05:40:15;;;;;;;23.73;14.43;;;13.50;59.60;;;;;;6099773;23;20010;-82
2022/12/07 05:42:41;;;;;;;21.10;14.05;;;13.40;59.30;;;;;;6101470;23;20002;-82
2022/12/07 05:45:08;;;;;;;25.58;16.80;;;13.40;59.90;;;;;;6100400;23;20021;-82
2022/12/07 05:47:33;;;;;;;26.77;16.63;;;13.40;59.60;;;;;;6126211;23;20002;-83
2022/12/07 05:49:59;;;;;;;26.48;18.23;;;13.60;59.50;;;;;;6126707;23;20072;-80
2022/12/07 05:52:25;;;;;;;26.02;16.73;;;13.80;58.80;;;;;;6125055;23;20055;-81
2022/12/07 05:54:51;;;;;;;29.35;17.00;;;13.90;58.60;;;;;;6124830;23;20002;-80
2022/12/07 05:57:18;;;;;;;24.67;16.55;;;14.00;58.40;;;;;;6098499;23;20498;-79
2022/12/07 05:59:43;;;;;;;22.40;15.45;;;13.50;59.40;;;;;;6125913;23;20002;-82
2022/12/07 06:02:11;;;;;;;28.75;18.80;;;13.30;59.90;;;;;;6124611;23;20001;-82
2022/12/07 06:04:43;;;;;;;24.38;15.82;;;13.30;60.00;;;;;;6099387;23;20017;-80
2022/12/07 06:07:10;;;;;;;20.38;13.75;;;13.20;59.80;;;;;;6099524;23;20423;-80
2022/12/07 06:09:36;;;;;;;18.20;12.13;;;13.00;60.30;;;;;;6125437;23;20060;-81
2022/12/07 06:14:47;;;;;;;18.20;12.95;;;13.10;60.10;;;;;;6125444;23;20041;-78
2022/12/07 06:17:13;;;;;;;19.00;12.93;;;13.00;60.40;;;;;;6099420;23;20096;-80
2022/12/07 06:19:40;;;;;;;19.83;14.27;;;13.20;60.10;;;;;;6100297;23;20517;-80
2022/12/07 06:22:06;;;;;;;18.70;12.52;;;13.40;59.70;;;;;;6099879;23;20347;-78
2022/12/07 06:24:33;;;;;;;18.60;13.07;;;13.40;59.30;;;;;;6099136;23;20096;-79
2022/12/07 06:26:58;;;;;;;18.63;13.65;;;13.30;59.50;;;;;;6099950;23;20503;-78
2022/12/07 06:29:24;;;;;;;19.83;13.32;;;13.10;59.80;;;;;;6124518;23;20002;-79
2022/12/07 06:31:50;;;;;;;16.77;11.85;;;12.60;60.60;;;;;;6123841;23;20709;-79
2022/12/07 06:34:18;;;;;;;17.48;12.20;;;12.50;61.20;;;;;;6125289;23;20002;-80
2022/12/07 06:36:44;;;;;;;17.05;11.82;;;12.50;61.20;;;;;;6099337;23;20041;-80
2022/12/07 06:39:10;;;;;;;18.10;12.90;;;11.90;61.80;;;;;;6125699;23;20001;-78
2022/12/07 06:41:37;;;;;;;19.88;13.45;;;11.50;63.80;;;;;;6124465;23;20100;-79
2022/12/07 06:44:06;;;;;;;19.55;12.55;;;11.30;64.10;;;;;;6099168;23;20071;-79
2022/12/07 06:46:32;;;;;;;17.55;11.93;;;11.60;63.90;;;;;;6099913;23;20344;-79
2022/12/07 06:48:58;;;;;;;19.10;12.95;;;11.60;63.20;;;;;;6122827;23;20006;-80
2022/12/07 06:51:24;;;;;;;19.60;13.95;;;11.40;63.50;;;;;;6123164;23;20020;-80
2022/12/07 06:53:50;;;;;;;19.42;13.15;;;11.30;64.60;;;;;;6124577;23;20077;-80
2022/12/07 06:56:15;;;;;;;18.45;12.57;;;11.40;64.00;;;;;;6125492;23;20428;-82
2022/12/07 06:58:41;;;;;;;20.98;13.38;;;11.80;63.30;;;;;;6098250;23;20002;-80
2022/12/07 07:01:16;;;;;;;19.48;12.55;;;11.70;63.10;;;;;;6123400;23;20006;-82
2022/12/07 07:03:43;;;;;;;18.33;12.50;;;11.60;63.20;;;;;;6127491;23;19994;-81
2022/12/07 07:06:09;;;;;;;17.30;12.55;;;11.50;63.70;;;;;;6127186;23;20018;-81
2022/12/07 07:08:36;;;;;;;18.67;13.27;;;11.80;62.50;;;;;;6101276;23;20006;-83
2022/12/07 07:11:01;;;;;;;17.75;12.20;;;11.90;62.50;;;;;;6126012;23;20061;-82
2022/12/07 07:13:27;;;;;;;17.63;11.73;;;12.00;62.40;;;;;;6126693;23;19998;-80
2022/12/07 07:15:57;;;;;;;17.05;11.95;;;12.30;61.80;;;;;;6100881;23;20010;-81
2022/12/07 07:18:23;;;;;;;16.50;11.77;;;12.40;61.00;;;;;;6100968;23;20085;-81
2022/12/07 07:20:50;;;;;;;18.70;12.23;;;12.50;60.90;;;;;;6126702;23;20006;-80
2022/12/07 07:23:16;;;;;;;15.90;11.20;;;12.50;61.00;;;;;;6125936;23;20006;-80
2022/12/07 07:25:42;;;;;;;16.98;11.68;;;12.80;60.40;;;;;;6125315;23;20343;-80
2022/12/07 07:28:07;;;;;;;22.48;14.68;;;12.90;59.60;;;;;;6127906;23;20332;-82
2022/12/07 07:30:33;;;;;;;22.10;14.90;;;13.00;60.10;;;;;;6101180;23;20041;-84
2022/12/07 07:33:00;;;;;;;18.98;13.70;;;13.10;59.80;;;;;;6126372;23;20005;-81
2022/12/07 07:35:27;;;;;;;16.42;12.40;;;13.40;59.40;;;;;;6127673;23;20097;-82
2022/12/07 07:37:53;;;;;;;15.80;10.65;;;13.30;58.70;;;;;;6101868;23;20006;-85
2022/12/07 07:40:19;;;;;;;19.25;12.50;;;13.00;59.20;;;;;;6126415;23;20001;-81
2022/12/07 07:42:48;;;;;;;19.33;12.45;;;13.00;59.40;;;;;;6101261;23;20013;-80
2022/12/07 07:45:14;;;;;;;16.10;11.52;;;12.80;60.00;;;;;;6101705;23;20092;-82
2022/12/07 07:47:39;;;;;;;17.52;11.70;;;13.20;59.20;;;;;;6101819;23;20022;-81
2022/12/07 07:50:06;;;;;;;14.60;10.68;;;13.30;58.80;;;;;;6126116;23;20017;-84
2022/12/07 07:52:31;;;;;;;17.75;12.02;;;13.20;59.40;;;;;;6101831;23;20029;-82
2022/12/07 07:54:57;;;;;;;20.90;13.38;;;13.50;58.70;;;;;;6127451;23;20002;-82
2022/12/07 07:57:23;;;;;;;15.23;10.75;;;13.80;57.60;;;;;;6126146;23;20009;-82
2022/12/07 07:59:49;;;;;;;17.02;11.13;;;13.90;58.10;;;;;;6126026;23;20061;-79
2022/12/07 08:02:19;;;;;;;16.45;11.13;;;13.80;57.70;;;;;;6127451;23;20002;-81
2022/12/07 08:04:45;;;;;;;15.48;11.05;;;14.10;57.50;;;;;;6102260;23;20041;-81
2022/12/07 08:07:12;;;;;;;14.75;10.52;;;14.00;57.70;;;;;;6101467;23;20403;-80
2022/12/07 08:09:38;;;;;;;13.70;9.73;;;13.90;57.70;;;;;;6101363;23;20010;-79
2022/12/07 08:12:04;;;;;;;13.02;9.93;;;13.80;57.70;;;;;;6101517;23;20401;-80
2022/12/07 08:14:30;;;;;;;13.85;9.98;;;13.80;58.00;;;;;;6101286;23;20014;-81
2022/12/07 08:16:56;;;;;;;15.85;10.50;;;14.30;58.10;;;;;;6123974;23;20427;-83
2022/12/07 08:19:22;;;;;;;14.98;10.75;;;14.70;56.90;;;;;;6099865;23;20054;-80
2022/12/07 08:21:48;;;;;;;15.52;11.60;;;14.90;56.40;;;;;;6125929;23;20432;-79
2022/12/07 08:24:14;;;;;;;15.10;10.25;;;14.80;55.60;;;;;;6125572;23;20016;-80
2022/12/07 08:26:41;;;;;;;13.63;9.85;;;14.70;56.60;;;;;;6126199;23;20105;-81
2022/12/07 08:29:06;;;;;;;14.88;10.55;;;14.90;56.00;;;;;;6101291;23;20332;-80
2022/12/07 08:31:32;;;;;;;15.88;10.98;;;14.90;55.60;;;;;;6125292;23;20428;-81
2022/12/07 08:33:58;;;;;;;13.38;9.35;;;14.80;56.60;;;;;;6125919;23;19994;-79
2022/12/07 08:36:25;;;;;;;24.77;15.50;;;15.20;55.60;;;;;;6127821;23;20427;-79
2022/12/07 08:38:50;;;;;;;51.17;26.80;;;15.40;55.50;;;;;;6127324;23;20057;-81
2022/12/07 08:41:16;;;;;;;87.20;43.60;;;15.20;55.00;;;;;;6125582;23;20001;-82
2022/12/07 08:43:42;;;;;;;27.95;16.63;;;15.30;54.90;;;;;;6127169;23;19998;-81
2022/12/07 08:46:20;;;;;;;16.98;11.38;;;15.60;54.80;;;;;;6101020;23;20017;-83
2022/12/07 08:48:54;;;;;;;20.42;12.75;;;16.30;54.60;;;;;;6101428;23;20313;-81
2022/12/07 08:51:21;;;;;;;15.73;11.43;;;18.70;51.90;;;;;;6127095;23;20009;-81
2022/12/07 08:53:48;;;;;;;14.23;10.07;;;20.20;50.20;;;;;;6127266;23;20047;-83
2022/12/07 08:56:13;;;;;;;13.80;10.57;;;22.10;47.30;;;;;;6127133;23;20017;-81
2022/12/07 08:58:40;;;;;;;13.50;9.27;;;23.10;45.60;;;;;;6100720;23;20006;-82
2022/12/07 09:01:05;;;;;;;12.52;9.57;;;24.70;44.20;;;;;;6126836;23;20033;-81
2022/12/07 09:03:31;;;;;;;17.38;12.30;;;24.90;43.10;;;;;;6127011;23;20025;-82
2022/12/07 09:05:58;;;;;;;12.38;9.68;;;24.30;43.40;;;;;;6126630;23;20024;-83
2022/12/07 09:08:29;;;;;;;12.35;9.23;;;23.90;43.40;;;;;;6101226;23;20002;-82
2022/12/07 09:10:55;;;;;;;9.82;7.88;;;22.70;44.30;;;;;;6127138;23;20029;-82
2022/12/07 09:13:20;;;;;;;10.68;7.75;;;22.10;45.60;;;;;;6126985;23;20033;-81
2022/12/07 09:15:46;;;;;;;9.57;7.32;;;22.50;45.70;;;;;;6125279;23;20017;-82
2022/12/07 09:18:12;;;;;;;10.73;8.20;;;22.80;45.20;;;;;;6124946;23;20430;-82
2022/12/07 09:20:37;;;;;;;9.52;7.47;;;22.70;44.70;;;;;;6100748;23;20010;-81
2022/12/07 09:23:06;;;;;;;10.88;7.22;;;22.00;44.80;;;;;;6100554;23;20010;-80
2022/12/07 09:25:32;;;;;;;9.50;7.15;;;20.70;46.00;;;;;;6126102;23;20014;-80
2022/12/07 09:27:58;;;;;;;8.90;6.80;;;19.40;47.20;;;;;;6126780;23;20002;-83
2022/12/07 09:30:24;;;;;;;8.90;6.65;;;18.80;48.50;;;;;;6100583;23;20025;-82
2022/12/07 09:32:52;;;;;;;9.18;7.15;;;18.10;48.60;;;;;;6126712;23;19998;-81
2022/12/07 09:35:17;;;;;;;8.40;6.63;;;17.00;49.60;;;;;;6101043;23;20148;-81
2022/12/07 09:37:43;;;;;;;8.88;6.75;;;15.20;52.60;;;;;;6124529;23;20419;-81
2022/12/07 09:40:09;;;;;;;9.55;6.85;;;14.70;53.80;;;;;;6124974;23;20423;-82
2022/12/07 09:42:48;;;;;;;10.02;7.65;;;13.90;55.20;;;;;;6125694;23;20006;-82
2022/12/07 09:45:29;;;;;;;16.77;8.13;;;13.70;56.10;;;;;;6126452;23;20332;-81
2022/12/07 09:47:55;;;;;;;11.88;8.10;;;13.80;56.00;;;;;;6126627;23;19998;-82
2022/12/07 09:50:26;;;;;;;10.98;7.47;;;13.40;56.20;;;;;;6126492;23;20129;-81
2022/12/07 09:52:54;;;;;;;10.38;8.15;;;13.70;56.40;;;;;;6126664;23;20002;-81
2022/12/07 09:55:25;;;;;;;11.32;7.47;;;14.00;55.80;;;;;;6126055;23;20046;-81
2022/12/07 09:57:52;;;;;;;11.20;7.82;;;14.10;55.20;;;;;;6126435;23;20029;-81
2022/12/07 10:00:23;;;;;;;9.85;7.57;;;13.90;55.10;;;;;;6126542;23;20001;-81
2022/12/07 10:03:02;;;;;;;10.80;8.00;;;14.20;55.30;;;;;;6100647;23;20013;-82
2022/12/07 10:05:37;;;;;;;10.98;7.57;;;14.50;54.70;;;;;;6100554;23;20029;-81
2022/12/07 10:08:03;;;;;;;11.02;8.02;;;14.30;54.20;;;;;;6126735;23;20077;-80
2022/12/07 10:10:32;;;;;;;9.75;7.45;;;14.10;55.40;;;;;;6100481;23;20010;-81
2022/12/07 10:13:07;;;;;;;12.70;8.55;;;14.00;55.40;;;;;;6100504;23;20002;-82
2022/12/07 10:15:53;;;;;;;10.25;7.65;;;14.10;55.10;;;;;;6100325;23;20063;-81
2022/12/07 10:18:26;;;;;;;11.35;7.75;;;14.10;54.80;;;;;;6126498;23;20088;-80
2022/12/07 10:21:03;;;;;;;9.98;7.15;;;13.90;55.40;;;;;;6100422;23;20002;-80
2022/12/07 10:23:29;;;;;;;11.38;8.45;;;13.50;55.40;;;;;;6126500;23;20002;-81
2022/12/07 10:25:54;;;;;;;10.77;7.68;;;13.60;56.80;;;;;;6124314;23;20018;-81
2022/12/07 10:28:21;;;;;;;10.25;7.40;;;14.00;56.30;;;;;;6124461;23;20006;-81
2022/12/07 10:31:03;;;;;;;16.35;8.38;;;14.50;55.20;;;;;;6100511;23;20002;-81
2022/12/07 10:33:50;;;;;;;11.13;7.30;;;14.20;55.10;;;;;;6100458;23;20010;-82
2022/12/07 10:36:25;;;;;;;11.15;7.72;;;14.10;55.10;;;;;;6119736;23;20085;-81
2022/12/07 10:39:14;;;;;;;9.93;7.90;;;14.30;55.00;;;;;;6102488;23;20002;-81
2022/12/07 10:41:58;;;;;;;11.23;7.90;;;14.70;55.00;;;;;;6102002;23;20060;-81
2022/12/07 10:44:33;;;;;;;13.68;8.50;;;14.90;54.50;;;;;;6102564;23;20002;-80
2022/12/07 10:47:14;;;;;;;10.70;8.15;;;15.10;54.70;;;;;;6102389;23;20014;-81
2022/12/07 10:49:49;;;;;;;10.48;7.90;;;14.80;54.10;;;;;;6102530;23;20044;-80
2022/12/07 10:52:33;;;;;;;13.90;7.40;;;14.30;55.20;;;;;;6128133;23;20006;-80
2022/12/07 10:55:04;;;;;;;13.63;9.23;;;14.20;55.70;;;;;;6128574;23;20012;-81
2022/12/07 10:57:49;;;;;;;10.77;7.88;;;14.50;55.50;;;;;;6128321;23;20013;-81
2022/12/07 11:00:25;;;;;;;13.45;10.70;;;15.50;54.60;;;;;;6102180;23;20088;-80
2022/12/07 11:03:00;;;;;;;10.65;7.50;;;16.30;52.10;;;;;;6102015;23;20002;-81
2022/12/07 11:05:47;;;;;;;9.88;7.53;;;16.40;52.10;;;;;;6102034;23;20014;-82
2022/12/07 11:08:43;;;;;;;10.85;7.22;;;17.00;51.80;;;;;;6127842;23;20022;-81
2022/12/07 11:11:18;;;;;;;9.32;7.07;;;17.70;50.70;;;;;;6102125;23;20017;-81
2022/12/07 11:14:00;;;;;;;10.18;7.88;;;18.10;50.50;;;;;;6102190;23;19998;-81
2022/12/07 11:16:47;;;;;;;13.93;7.57;;;17.90;50.20;;;;;;6102048;23;20082;-82
2022/12/07 11:19:50;;;;;;;10.25;7.38;;;17.60;50.50;;;;;;6127998;23;20021;-81
2022/12/07 11:22:42;;;;;;;11.00;8.00;;;17.20;51.60;;;;;;6102131;23;20013;-81
2022/12/07 11:25:17;;;;;;;9.68;7.20;;;16.80;51.80;;;;;;6101777;23;20018;-82
2022/12/07 11:28:07;;;;;;;10.25;7.78;;;16.30;51.90;;;;;;6127691;23;20034;-81
2022/12/07 11:31:04;;;;;;;11.38;8.25;;;15.90;52.40;;;;;;6127562;23;20012;-80
2022/12/07 11:33:43;;;;;;;9.77;7.10;;;15.40;53.00;;;;;;6127768;23;20010;-81
2022/12/07 11:36:12;;;;;;;14.43;8.00;;;15.20;52.90;;;;;;6101870;23;20041;-80
2022/12/07 11:38:47;;;;;;;12.75;8.93;;;15.10;54.00;;;;;;6127442;23;20013;-80
2022/12/07 11:41:15;;;;;;;11.40;7.72;;;15.10;53.60;;;;;;6101760;23;20053;-80
2022/12/07 11:44:02;;;;;;;12.98;8.88;;;15.10;53.30;;;;;;6127508;23;20005;-81
2022/12/07 11:46:40;;;;;;;11.82;8.55;;;15.40;53.70;;;;;;6102269;23;20093;-80
2022/12/07 11:49:12;;;;;;;12.18;8.95;;;15.20;53.20;;;;;;6127479;23;19994;-81
2022/12/07 11:51:40;;;;;;;9.65;7.32;;;14.90;54.00;;;;;;6101725;23;20012;-80
2022/12/07 11:54:18;;;;;;;9.77;7.65;;;15.00;53.70;;;;;;6101788;23;20092;-80
2022/12/07 11:56:47;;;;;;;11.75;7.35;;;14.70;53.70;;;;;;6127266;23;20056;-83
2022/12/07 11:59:23;;;;;;;10.50;7.47;;;14.60;53.60;;;;;;6127579;23;20010;-80
2022/12/07 12:02:14;;;;;;;10.85;7.40;;;14.30;53.70;;;;;;6126941;23;20033;-80
2022/12/07 12:05:01;;;;;;;12.93;7.70;;;14.10;53.80;;;;;;6126825;23;20006;-81
2022/12/07 12:07:28;;;;;;;15.32;8.75;;;14.30;54.40;;;;;;6101726;23;20029;-81
2022/12/07 12:10:02;;;;;;;12.10;8.15;;;14.60;54.30;;;;;;6101428;23;20387;-80
2022/12/07 12:13:02;;;;;;;10.80;8.00;;;14.70;53.90;;;;;;6101386;23;19998;-80
2022/12/07 12:15:55;;;;;;;13.10;8.00;;;14.30;54.60;;;;;;6127092;23;20005;-81
2022/12/07 12:18:50;;;;;;;11.15;7.90;;;14.10;55.10;;;;;;6127439;23;20098;-80
2022/12/07 12:21:19;;;;;;;10.18;7.07;;;13.80;55.40;;;;;;6127280;23;20049;-80
2022/12/07 12:24:00;;;;;;;11.15;7.82;;;13.90;55.20;;;;;;6127428;23;20002;-80
2022/12/07 12:26:33;;;;;;;10.63;8.02;;;13.70;55.10;;;;;;6101134;23;20088;-80
2022/12/07 12:29:07;;;;;;;10.88;7.30;;;13.80;56.10;;;;;;6101557;23;19998;-81
2022/12/07 12:31:39;;;;;;;11.30;8.18;;;14.10;55.50;;;;;;6101290;23;20014;-80
2022/12/07 12:34:39;;;;;;;10.57;7.47;;;14.20;55.00;;;;;;6101261;23;20006;-80
2022/12/07 12:37:33;;;;;;;11.10;8.38;;;14.30;55.10;;;;;;6101200;23;20014;-82
2022/12/07 12:40:14;;;;;;;10.52;7.57;;;14.10;55.70;;;;;;6101090;23;20005;-81
2022/12/07 12:42:50;;;;;;;10.18;6.82;;;14.00;55.50;;;;;;6127170;23;20006;-80
2022/12/07 12:45:21;;;;;;;9.80;6.28;;;13.80;55.00;;;;;;6101305;23;20324;-79
2022/12/07 12:48:03;;;;;;;9.20;6.43;;;13.30;55.50;;;;;;6101485;23;20096;-80
2022/12/07 12:50:31;;;;;;;9.18;6.55;;;13.30;54.80;;;;;;6127268;23;20069;-82
2022/12/07 12:52:57;;;;;;;8.50;5.85;;;13.40;55.80;;;;;;6100405;23;20002;-79